sensor_id;sensor_type;location;lat;lon;timestamp;P1;durP1;ratioP1;P2;durP2;ratioP2
46463;SDS011;32161;48.148;-1.554;2022-08-25T00:02:01;5.95;;;2.53;;
46463;SDS011;32161;48.148;-1.554;2022-08-25T00:04:32;6.90;;;2.45;;
46463;SDS011;32161;48.148;-1.554;2022-08-25T00:07:01;8.80;;;2.83;;
46463;SDS011;32161;48.148;-1.554;2022-08-25T00:09:30;5.18;;;2.70;;
46463;SDS011;32161;48.148;-1.554;2022-08-25T00:12:01;4.75;;;2.70;;
46463;SDS011;32161;48.148;-1.554;2022-08-25T00:14:31;2.33;;;2.22;;
46463;SDS011;32161;48.148;-1.554;2022-08-25T00:17:02;4.22;;;2.50;;
46463;SDS011;32161;48.148;-1.554;2022-08-25T00:19:32;6.05;;;2.83;;
46463;SDS011;32161;48.148;-1.554;2022-08-25T00:22:02;7.38;;;3.10;;
46463;SDS011;32161;48.148;-1.554;2022-08-25T00:24:32;5.45;;;2.75;;
46463;SDS011;32161;48.148;-1.554;2022-08-25T00:27:01;3.65;;;2.88;;
46463;SDS011;32161;48.148;-1.554;2022-08-25T00:29:30;6.38;;;3.30;;
46463;SDS011;32161;48.148;-1.554;2022-08-25T00:31:58;6.32;;;3.20;;
46463;SDS011;32161;48.148;-1.554;2022-08-25T00:34:28;5.45;;;2.85;;
46463;SDS011;32161;48.148;-1.554;2022-08-25T00:37:01;6.30;;;2.72;;
46463;SDS011;32161;48.148;-1.554;2022-08-25T00:39:31;6.78;;;2.78;;
46463;SDS011;32161;48.148;-1.554;2022-08-25T00:41:58;7.15;;;3.72;;
46463;SDS011;32161;48.148;-1.554;2022-08-25T00:44:29;4.95;;;3.25;;
46463;SDS011;32161;48.148;-1.554;2022-08-25T00:46:58;5.05;;;2.95;;
46463;SDS011;32161;48.148;-1.554;2022-08-25T00:49:30;4.50;;;3.00;;
46463;SDS011;32161;48.148;-1.554;2022-08-25T00:52:03;8.07;;;3.40;;
46463;SDS011;32161;48.148;-1.554;2022-08-25T00:54:36;8.05;;;4.53;;
46463;SDS011;32161;48.148;-1.554;2022-08-25T00:57:11;6.28;;;3.83;;
46463;SDS011;32161;48.148;-1.554;2022-08-25T00:59:43;4.25;;;3.85;;
46463;SDS011;32161;48.148;-1.554;2022-08-25T01:02:11;7.57;;;3.67;;
46463;SDS011;32161;48.148;-1.554;2022-08-25T01:04:41;4.82;;;3.33;;
46463;SDS011;32161;48.148;-1.554;2022-08-25T01:07:11;6.80;;;4.20;;
46463;SDS011;32161;48.148;-1.554;2022-08-25T01:09:40;5.43;;;4.05;;
46463;SDS011;32161;48.148;-1.554;2022-08-25T01:12:10;10.05;;;4.22;;
46463;SDS011;32161;48.148;-1.554;2022-08-25T01:14:38;5.60;;;3.97;;
46463;SDS011;32161;48.148;-1.554;2022-08-25T01:17:06;7.20;;;4.28;;
46463;SDS011;32161;48.148;-1.554;2022-08-25T01:19:34;8.43;;;4.75;;
46463;SDS011;32161;48.148;-1.554;2022-08-25T01:22:03;6.30;;;4.63;;
46463;SDS011;32161;48.148;-1.554;2022-08-25T01:24:38;7.93;;;5.28;;
46463;SDS011;32161;48.148;-1.554;2022-08-25T01:27:12;9.75;;;5.15;;
46463;SDS011;32161;48.148;-1.554;2022-08-25T01:29:40;5.47;;;5.00;;
46463;SDS011;32161;48.148;-1.554;2022-08-25T01:32:08;7.43;;;5.90;;
46463;SDS011;32161;48.148;-1.554;2022-08-25T01:34:39;13.15;;;6.03;;
46463;SDS011;32161;48.148;-1.554;2022-08-25T01:37:12;8.13;;;6.78;;
46463;SDS011;32161;48.148;-1.554;2022-08-25T01:39:43;8.80;;;7.95;;
46463;SDS011;32161;48.148;-1.554;2022-08-25T01:44:59;10.50;;;9.43;;
46463;SDS011;32161;48.148;-1.554;2022-08-25T01:47:27;11.32;;;9.63;;
46463;SDS011;32161;48.148;-1.554;2022-08-25T01:49:56;13.35;;;9.18;;
46463;SDS011;32161;48.148;-1.554;2022-08-25T01:52:27;15.93;;;9.68;;
46463;SDS011;32161;48.148;-1.554;2022-08-25T01:54:58;13.40;;;9.82;;
46463;SDS011;32161;48.148;-1.554;2022-08-25T01:57:27;16.58;;;10.93;;
46463;SDS011;32161;48.148;-1.554;2022-08-25T01:59:56;14.07;;;11.65;;
46463;SDS011;32161;48.148;-1.554;2022-08-25T02:02:23;13.80;;;11.45;;
46463;SDS011;32161;48.148;-1.554;2022-08-25T02:04:51;14.25;;;11.43;;
46463;SDS011;32161;48.148;-1.554;2022-08-25T02:07:19;12.88;;;11.13;;
46463;SDS011;32161;48.148;-1.554;2022-08-25T02:09:48;13.32;;;11.93;;
46463;SDS011;32161;48.148;-1.554;2022-08-25T02:12:15;15.05;;;11.65;;
46463;SDS011;32161;48.148;-1.554;2022-08-25T02:14:43;13.57;;;11.02;;
46463;SDS011;32161;48.148;-1.554;2022-08-25T02:17:10;13.45;;;10.65;;
46463;SDS011;32161;48.148;-1.554;2022-08-25T02:19:38;14.68;;;11.52;;
46463;SDS011;32161;48.148;-1.554;2022-08-25T02:22:05;12.82;;;11.25;;
46463;SDS011;32161;48.148;-1.554;2022-08-25T02:24:33;17.38;;;10.70;;
46463;SDS011;32161;48.148;-1.554;2022-08-25T02:27:02;13.98;;;10.73;;
46463;SDS011;32161;48.148;-1.554;2022-08-25T02:29:30;21.20;;;10.25;;
46463;SDS011;32161;48.148;-1.554;2022-08-25T02:31:58;12.65;;;9.63;;
46463;SDS011;32161;48.148;-1.554;2022-08-25T02:34:27;12.25;;;9.40;;
46463;SDS011;32161;48.148;-1.554;2022-08-25T02:36:54;11.85;;;8.73;;
46463;SDS011;32161;48.148;-1.554;2022-08-25T02:39:22;21.50;;;10.55;;
46463;SDS011;32161;48.148;-1.554;2022-08-25T02:41:50;10.50;;;9.45;;
46463;SDS011;32161;48.148;-1.554;2022-08-25T02:44:19;10.38;;;8.80;;
46463;SDS011;32161;48.148;-1.554;2022-08-25T02:46:46;11.20;;;8.02;;
46463;SDS011;32161;48.148;-1.554;2022-08-25T02:49:14;14.02;;;7.53;;
46463;SDS011;32161;48.148;-1.554;2022-08-25T02:51:42;9.68;;;7.20;;
46463;SDS011;32161;48.148;-1.554;2022-08-25T02:54:10;8.25;;;7.43;;
46463;SDS011;32161;48.148;-1.554;2022-08-25T02:56:38;10.65;;;6.88;;
46463;SDS011;32161;48.148;-1.554;2022-08-25T02:59:06;9.23;;;6.63;;
46463;SDS011;32161;48.148;-1.554;2022-08-25T03:01:36;9.73;;;6.75;;
46463;SDS011;32161;48.148;-1.554;2022-08-25T03:04:04;9.48;;;6.15;;
46463;SDS011;32161;48.148;-1.554;2022-08-25T03:06:32;6.72;;;6.03;;
46463;SDS011;32161;48.148;-1.554;2022-08-25T03:08:59;8.38;;;6.00;;
46463;SDS011;32161;48.148;-1.554;2022-08-25T03:11:27;5.63;;;5.03;;
46463;SDS011;32161;48.148;-1.554;2022-08-25T03:13:55;7.55;;;3.97;;
46463;SDS011;32161;48.148;-1.554;2022-08-25T03:16:23;6.88;;;4.72;;
46463;SDS011;32161;48.148;-1.554;2022-08-25T03:18:53;6.72;;;3.92;;
46463;SDS011;32161;48.148;-1.554;2022-08-25T03:21:21;4.13;;;3.83;;
46463;SDS011;32161;48.148;-1.554;2022-08-25T03:23:49;7.93;;;3.88;;
46463;SDS011;32161;48.148;-1.554;2022-08-25T03:26:16;4.10;;;3.15;;
46463;SDS011;32161;48.148;-1.554;2022-08-25T03:29:02;12.65;;;3.60;;
46463;SDS011;32161;48.148;-1.554;2022-08-25T03:31:30;5.88;;;2.85;;
46463;SDS011;32161;48.148;-1.554;2022-08-25T03:34:01;4.60;;;2.92;;
46463;SDS011;32161;48.148;-1.554;2022-08-25T03:36:28;4.63;;;2.28;;
46463;SDS011;32161;48.148;-1.554;2022-08-25T03:38:56;4.85;;;2.40;;
46463;SDS011;32161;48.148;-1.554;2022-08-25T03:41:25;6.25;;;3.22;;
46463;SDS011;32161;48.148;-1.554;2022-08-25T03:43:57;3.25;;;2.92;;
46463;SDS011;32161;48.148;-1.554;2022-08-25T03:46:27;3.00;;;2.30;;
46463;SDS011;32161;48.148;-1.554;2022-08-25T03:48:56;3.67;;;2.80;;
46463;SDS011;32161;48.148;-1.554;2022-08-25T03:51:30;5.97;;;2.67;;
46463;SDS011;32161;48.148;-1.554;2022-08-25T03:53:59;3.03;;;2.33;;
46463;SDS011;32161;48.148;-1.554;2022-08-25T03:56:29;2.85;;;2.45;;
46463;SDS011;32161;48.148;-1.554;2022-08-25T03:58:57;3.58;;;2.58;;
46463;SDS011;32161;48.148;-1.554;2022-08-25T04:01:25;5.22;;;2.50;;
46463;SDS011;32161;48.148;-1.554;2022-08-25T04:03:53;6.65;;;2.28;;
46463;SDS011;32161;48.148;-1.554;2022-08-25T04:06:26;4.57;;;2.35;;
46463;SDS011;32161;48.148;-1.554;2022-08-25T04:08:54;3.65;;;2.50;;
46463;SDS011;32161;48.148;-1.554;2022-08-25T04:11:23;3.13;;;2.22;;
46463;SDS011;32161;48.148;-1.554;2022-08-25T04:13:52;7.13;;;2.28;;
46463;SDS011;32161;48.148;-1.554;2022-08-25T04:16:24;5.60;;;2.05;;
46463;SDS011;32161;48.148;-1.554;2022-08-25T04:18:55;4.15;;;3.03;;
46463;SDS011;32161;48.148;-1.554;2022-08-25T04:21:26;3.58;;;2.13;;
46463;SDS011;32161;48.148;-1.554;2022-08-25T04:23:55;6.43;;;1.80;;
46463;SDS011;32161;48.148;-1.554;2022-08-25T04:26:24;2.95;;;2.05;;
46463;SDS011;32161;48.148;-1.554;2022-08-25T04:28:54;5.65;;;1.95;;
46463;SDS011;32161;48.148;-1.554;2022-08-25T04:31:24;3.20;;;1.83;;
46463;SDS011;32161;48.148;-1.554;2022-08-25T04:33:53;2.03;;;1.77;;
46463;SDS011;32161;48.148;-1.554;2022-08-25T04:36:21;5.47;;;2.20;;
46463;SDS011;32161;48.148;-1.554;2022-08-25T04:38:51;3.53;;;1.95;;
46463;SDS011;32161;48.148;-1.554;2022-08-25T04:41:20;9.70;;;2.03;;
46463;SDS011;32161;48.148;-1.554;2022-08-25T04:43:49;7.20;;;2.50;;
46463;SDS011;32161;48.148;-1.554;2022-08-25T04:46:19;4.55;;;2.22;;
46463;SDS011;32161;48.148;-1.554;2022-08-25T04:51:19;3.75;;;2.35;;
46463;SDS011;32161;48.148;-1.554;2022-08-25T04:56:20;6.70;;;2.00;;
46463;SDS011;32161;48.148;-1.554;2022-08-25T04:58:50;6.18;;;2.03;;
46463;SDS011;32161;48.148;-1.554;2022-08-25T05:01:20;4.00;;;1.92;;
46463;SDS011;32161;48.148;-1.554;2022-08-25T05:03:52;8.00;;;1.83;;
46463;SDS011;32161;48.148;-1.554;2022-08-25T05:06:23;5.05;;;2.00;;
46463;SDS011;32161;48.148;-1.554;2022-08-25T05:08:54;3.60;;;2.10;;
46463;SDS011;32161;48.148;-1.554;2022-08-25T05:11:23;5.47;;;1.73;;
46463;SDS011;32161;48.148;-1.554;2022-08-25T05:13:53;5.57;;;1.98;;
46463;SDS011;32161;48.148;-1.554;2022-08-25T05:16:22;6.05;;;1.90;;
46463;SDS011;32161;48.148;-1.554;2022-08-25T05:18:51;11.82;;;3.10;;
46463;SDS011;32161;48.148;-1.554;2022-08-25T05:21:21;7.65;;;3.00;;
46463;SDS011;32161;48.148;-1.554;2022-08-25T05:23:54;9.57;;;3.17;;
46463;SDS011;32161;48.148;-1.554;2022-08-25T05:26:23;4.90;;;3.10;;
46463;SDS011;32161;48.148;-1.554;2022-08-25T05:28:55;9.75;;;3.78;;
46463;SDS011;32161;48.148;-1.554;2022-08-25T05:31:25;8.18;;;2.88;;
46463;SDS011;32161;48.148;-1.554;2022-08-25T05:33:54;7.68;;;3.20;;
46463;SDS011;32161;48.148;-1.554;2022-08-25T05:36:22;12.20;;;3.47;;
46463;SDS011;32161;48.148;-1.554;2022-08-25T05:38:55;6.65;;;2.90;;
46463;SDS011;32161;48.148;-1.554;2022-08-25T05:41:24;9.32;;;3.10;;
46463;SDS011;32161;48.148;-1.554;2022-08-25T05:43:54;4.20;;;2.45;;
46463;SDS011;32161;48.148;-1.554;2022-08-25T05:46:23;10.48;;;3.20;;
46463;SDS011;32161;48.148;-1.554;2022-08-25T05:48:51;7.40;;;3.38;;
46463;SDS011;32161;48.148;-1.554;2022-08-25T05:51:19;4.55;;;3.00;;
46463;SDS011;32161;48.148;-1.554;2022-08-25T05:53:48;5.13;;;2.58;;
46463;SDS011;32161;48.148;-1.554;2022-08-25T05:56:18;6.05;;;3.05;;
46463;SDS011;32161;48.148;-1.554;2022-08-25T05:58:46;7.53;;;4.43;;
46463;SDS011;32161;48.148;-1.554;2022-08-25T06:01:18;7.32;;;3.17;;
46463;SDS011;32161;48.148;-1.554;2022-08-25T06:04:02;10.95;;;3.92;;
46463;SDS011;32161;48.148;-1.554;2022-08-25T06:06:30;10.50;;;3.30;;
46463;SDS011;32161;48.148;-1.554;2022-08-25T06:08:58;5.80;;;2.25;;
46463;SDS011;32161;48.148;-1.554;2022-08-25T06:11:32;9.45;;;2.78;;
46463;SDS011;32161;48.148;-1.554;2022-08-25T06:14:04;7.72;;;2.38;;
46463;SDS011;32161;48.148;-1.554;2022-08-25T06:16:32;5.25;;;2.53;;
46463;SDS011;32161;48.148;-1.554;2022-08-25T06:19:01;7.78;;;2.88;;
46463;SDS011;32161;48.148;-1.554;2022-08-25T06:21:29;6.93;;;2.50;;
46463;SDS011;32161;48.148;-1.554;2022-08-25T06:23:56;4.72;;;2.75;;
46463;SDS011;32161;48.148;-1.554;2022-08-25T06:26:24;5.55;;;2.65;;
46463;SDS011;32161;48.148;-1.554;2022-08-25T06:28:53;5.43;;;2.65;;
46463;SDS011;32161;48.148;-1.554;2022-08-25T06:31:20;3.45;;;2.85;;
46463;SDS011;32161;48.148;-1.554;2022-08-25T06:33:48;8.23;;;3.10;;
46463;SDS011;32161;48.148;-1.554;2022-08-25T06:36:17;5.82;;;2.80;;
46463;SDS011;32161;48.148;-1.554;2022-08-25T06:38:45;4.80;;;2.65;;
46463;SDS011;32161;48.148;-1.554;2022-08-25T06:41:13;6.13;;;2.72;;
46463;SDS011;32161;48.148;-1.554;2022-08-25T06:43:41;8.98;;;2.75;;
46463;SDS011;32161;48.148;-1.554;2022-08-25T06:46:12;11.80;;;3.42;;
46463;SDS011;32161;48.148;-1.554;2022-08-25T06:48:41;6.90;;;3.40;;
46463;SDS011;32161;48.148;-1.554;2022-08-25T06:51:10;6.70;;;3.25;;
46463;SDS011;32161;48.148;-1.554;2022-08-25T06:53:42;8.65;;;3.67;;
46463;SDS011;32161;48.148;-1.554;2022-08-25T06:56:12;5.50;;;2.85;;
46463;SDS011;32161;48.148;-1.554;2022-08-25T06:58:40;6.65;;;2.72;;
46463;SDS011;32161;48.148;-1.554;2022-08-25T07:01:08;5.97;;;2.72;;
46463;SDS011;32161;48.148;-1.554;2022-08-25T07:03:39;9.35;;;2.97;;
46463;SDS011;32161;48.148;-1.554;2022-08-25T07:06:07;6.65;;;2.88;;
46463;SDS011;32161;48.148;-1.554;2022-08-25T07:08:35;6.38;;;2.70;;
46463;SDS011;32161;48.148;-1.554;2022-08-25T07:11:04;4.05;;;2.28;;
46463;SDS011;32161;48.148;-1.554;2022-08-25T07:13:32;9.95;;;2.63;;
46463;SDS011;32161;48.148;-1.554;2022-08-25T07:16:01;5.22;;;2.70;;
46463;SDS011;32161;48.148;-1.554;2022-08-25T07:18:31;5.55;;;2.13;;
46463;SDS011;32161;48.148;-1.554;2022-08-25T07:20:59;5.90;;;1.75;;
46463;SDS011;32161;48.148;-1.554;2022-08-25T07:23:27;5.00;;;2.35;;
46463;SDS011;32161;48.148;-1.554;2022-08-25T07:25:55;6.68;;;2.22;;
46463;SDS011;32161;48.148;-1.554;2022-08-25T07:28:32;4.43;;;2.22;;
46463;SDS011;32161;48.148;-1.554;2022-08-25T07:30:59;9.05;;;2.55;;
46463;SDS011;32161;48.148;-1.554;2022-08-25T07:33:27;10.73;;;2.78;;
46463;SDS011;32161;48.148;-1.554;2022-08-25T07:35:56;10.15;;;2.60;;
46463;SDS011;32161;48.148;-1.554;2022-08-25T07:38:22;5.65;;;2.38;;
46463;SDS011;32161;48.148;-1.554;2022-08-25T07:40:50;7.03;;;2.33;;
46463;SDS011;32161;48.148;-1.554;2022-08-25T07:43:20;8.30;;;2.03;;
46463;SDS011;32161;48.148;-1.554;2022-08-25T07:45:48;7.72;;;2.03;;
46463;SDS011;32161;48.148;-1.554;2022-08-25T07:48:15;6.57;;;2.15;;
46463;SDS011;32161;48.148;-1.554;2022-08-25T07:50:45;9.38;;;2.60;;
46463;SDS011;32161;48.148;-1.554;2022-08-25T07:53:15;13.57;;;3.35;;
46463;SDS011;32161;48.148;-1.554;2022-08-25T07:55:43;11.07;;;3.13;;
46463;SDS011;32161;48.148;-1.554;2022-08-25T07:58:11;10.88;;;3.00;;
46463;SDS011;32161;48.148;-1.554;2022-08-25T08:00:39;10.43;;;2.75;;
46463;SDS011;32161;48.148;-1.554;2022-08-25T08:03:07;8.90;;;2.53;;
46463;SDS011;32161;48.148;-1.554;2022-08-25T08:05:35;10.98;;;3.55;;
46463;SDS011;32161;48.148;-1.554;2022-08-25T08:10:35;9.70;;;2.97;;
46463;SDS011;32161;48.148;-1.554;2022-08-25T08:13:05;7.03;;;2.20;;
46463;SDS011;32161;48.148;-1.554;2022-08-25T08:15:34;9.18;;;2.03;;
46463;SDS011;32161;48.148;-1.554;2022-08-25T08:18:02;8.90;;;2.13;;
46463;SDS011;32161;48.148;-1.554;2022-08-25T08:20:30;7.00;;;2.20;;
46463;SDS011;32161;48.148;-1.554;2022-08-25T08:23:01;9.60;;;2.95;;
46463;SDS011;32161;48.148;-1.554;2022-08-25T08:25:30;6.65;;;2.20;;
46463;SDS011;32161;48.148;-1.554;2022-08-25T08:27:59;9.18;;;2.10;;
46463;SDS011;32161;48.148;-1.554;2022-08-25T08:30:26;9.05;;;2.20;;
46463;SDS011;32161;48.148;-1.554;2022-08-25T08:32:54;4.60;;;2.15;;
46463;SDS011;32161;48.148;-1.554;2022-08-25T08:35:22;10.88;;;2.65;;
46463;SDS011;32161;48.148;-1.554;2022-08-25T08:37:50;9.95;;;2.50;;
46463;SDS011;32161;48.148;-1.554;2022-08-25T08:40:17;4.95;;;2.17;;
46463;SDS011;32161;48.148;-1.554;2022-08-25T08:42:52;8.30;;;2.10;;
46463;SDS011;32161;48.148;-1.554;2022-08-25T08:45:31;8.00;;;2.90;;
46463;SDS011;32161;48.148;-1.554;2022-08-25T08:51:06;6.43;;;2.15;;
46463;SDS011;32161;48.148;-1.554;2022-08-25T08:53:47;5.95;;;1.85;;
46463;SDS011;32161;48.148;-1.554;2022-08-25T08:56:20;8.20;;;2.05;;
46463;SDS011;32161;48.148;-1.554;2022-08-25T08:58:54;3.67;;;2.25;;
46463;SDS011;32161;48.148;-1.554;2022-08-25T09:01:25;4.43;;;2.15;;
46463;SDS011;32161;48.148;-1.554;2022-08-25T09:03:58;2.08;;;1.75;;
46463;SDS011;32161;48.148;-1.554;2022-08-25T09:06:35;3.05;;;1.52;;
46463;SDS011;32161;48.148;-1.554;2022-08-25T09:09:08;5.05;;;2.15;;
46463;SDS011;32161;48.148;-1.554;2022-08-25T09:11:45;3.83;;;1.90;;
46463;SDS011;32161;48.148;-1.554;2022-08-25T09:14:31;4.38;;;1.90;;
46463;SDS011;32161;48.148;-1.554;2022-08-25T09:17:10;4.40;;;1.75;;
46463;SDS011;32161;48.148;-1.554;2022-08-25T09:20:01;3.67;;;1.90;;
46463;SDS011;32161;48.148;-1.554;2022-08-25T09:23:01;3.45;;;1.10;;
46463;SDS011;32161;48.148;-1.554;2022-08-25T09:25:40;1.02;;;1.00;;
46463;SDS011;32161;48.148;-1.554;2022-08-25T09:28:18;4.75;;;1.17;;
46463;SDS011;32161;48.148;-1.554;2022-08-25T09:30:51;1.90;;;0.88;;
46463;SDS011;32161;48.148;-1.554;2022-08-25T09:33:26;1.25;;;0.70;;
46463;SDS011;32161;48.148;-1.554;2022-08-25T09:35:56;5.50;;;1.02;;
46463;SDS011;32161;48.148;-1.554;2022-08-25T09:38:25;2.15;;;0.82;;
46463;SDS011;32161;48.148;-1.554;2022-08-25T09:40:56;0.70;;;0.57;;
46463;SDS011;32161;48.148;-1.554;2022-08-25T09:43:29;1.80;;;0.50;;
46463;SDS011;32161;48.148;-1.554;2022-08-25T09:46:01;2.22;;;0.80;;
46463;SDS011;32161;48.148;-1.554;2022-08-25T09:48:41;1.63;;;0.70;;
46463;SDS011;32161;48.148;-1.554;2022-08-25T09:51:16;1.70;;;0.63;;
46463;SDS011;32161;48.148;-1.554;2022-08-25T09:53:50;0.95;;;0.50;;
46463;SDS011;32161;48.148;-1.554;2022-08-25T09:56:22;0.80;;;0.80;;
46463;SDS011;32161;48.148;-1.554;2022-08-25T09:58:52;2.70;;;0.63;;
46463;SDS011;32161;48.148;-1.554;2022-08-25T10:01:26;2.72;;;0.93;;
46463;SDS011;32161;48.148;-1.554;2022-08-25T10:03:55;1.55;;;0.52;;
46463;SDS011;32161;48.148;-1.554;2022-08-25T10:06:27;0.30;;;0.30;;
46463;SDS011;32161;48.148;-1.554;2022-08-25T10:09:03;2.47;;;0.50;;
46463;SDS011;32161;48.148;-1.554;2022-08-25T10:11:34;2.33;;;0.90;;
46463;SDS011;32161;48.148;-1.554;2022-08-25T10:14:14;0.65;;;0.65;;
46463;SDS011;32161;48.148;-1.554;2022-08-25T10:16:47;2.15;;;0.70;;
46463;SDS011;32161;48.148;-1.554;2022-08-25T10:19:25;2.38;;;1.00;;
46463;SDS011;32161;48.148;-1.554;2022-08-25T10:22:04;2.63;;;0.65;;
46463;SDS011;32161;48.148;-1.554;2022-08-25T10:24:34;0.77;;;0.52;;
46463;SDS011;32161;48.148;-1.554;2022-08-25T10:27:05;0.65;;;0.50;;
46463;SDS011;32161;48.148;-1.554;2022-08-25T10:32:47;3.30;;;0.43;;
46463;SDS011;32161;48.148;-1.554;2022-08-25T10:35:46;2.47;;;0.40;;
46463;SDS011;32161;48.148;-1.554;2022-08-25T10:38:27;1.27;;;0.45;;
46463;SDS011;32161;48.148;-1.554;2022-08-25T10:41:20;1.88;;;0.50;;
46463;SDS011;32161;48.148;-1.554;2022-08-25T10:44:12;1.98;;;0.52;;
46463;SDS011;32161;48.148;-1.554;2022-08-25T10:47:21;3.63;;;0.60;;
46463;SDS011;32161;48.148;-1.554;2022-08-25T10:50:17;3.42;;;0.40;;
46463;SDS011;32161;48.148;-1.554;2022-08-25T10:53:02;3.33;;;0.88;;
46463;SDS011;32161;48.148;-1.554;2022-08-25T10:55:47;1.35;;;0.40;;
46463;SDS011;32161;48.148;-1.554;2022-08-25T10:58:39;0.70;;;0.50;;
46463;SDS011;32161;48.148;-1.554;2022-08-25T11:01:27;0.95;;;0.40;;
46463;SDS011;32161;48.148;-1.554;2022-08-25T11:04:06;3.78;;;0.32;;
46463;SDS011;32161;48.148;-1.554;2022-08-25T11:06:41;5.47;;;0.38;;
46463;SDS011;32161;48.148;-1.554;2022-08-25T11:09:17;0.20;;;0.20;;
46463;SDS011;32161;48.148;-1.554;2022-08-25T11:11:51;2.55;;;0.43;;
46463;SDS011;32161;48.148;-1.554;2022-08-25T11:14:24;2.58;;;0.30;;
46463;SDS011;32161;48.148;-1.554;2022-08-25T11:17:00;2.83;;;0.65;;
46463;SDS011;32161;48.148;-1.554;2022-08-25T11:19:38;2.70;;;0.28;;
46463;SDS011;32161;48.148;-1.554;2022-08-25T11:22:13;0.70;;;0.22;;
46463;SDS011;32161;48.148;-1.554;2022-08-25T11:24:54;1.80;;;0.50;;
46463;SDS011;32161;48.148;-1.554;2022-08-25T11:27:35;0.68;;;0.30;;
46463;SDS011;32161;48.148;-1.554;2022-08-25T11:30:13;1.63;;;0.35;;
46463;SDS011;32161;48.148;-1.554;2022-08-25T11:32:45;0.20;;;0.20;;
46463;SDS011;32161;48.148;-1.554;2022-08-25T11:35:19;1.35;;;0.70;;
46463;SDS011;32161;48.148;-1.554;2022-08-25T11:40:55;1.55;;;0.40;;
46463;SDS011;32161;48.148;-1.554;2022-08-25T11:43:41;2.60;;;0.30;;
46463;SDS011;32161;48.148;-1.554;2022-08-25T11:46:38;1.65;;;0.30;;
46463;SDS011;32161;48.148;-1.554;2022-08-25T11:49:28;4.22;;;0.30;;
46463;SDS011;32161;48.148;-1.554;2022-08-25T11:55:15;12.32;;;0.85;;
46463;SDS011;32161;48.148;-1.554;2022-08-25T11:57:46;1.83;;;0.20;;
46463;SDS011;32161;48.148;-1.554;2022-08-25T12:06:27;0.17;;;0.10;;
46463;SDS011;32161;48.148;-1.554;2022-08-25T12:09:17;0.88;;;0.20;;
46463;SDS011;32161;48.148;-1.554;2022-08-25T12:11:50;1.10;;;0.30;;
46463;SDS011;32161;48.148;-1.554;2022-08-25T12:14:37;1.08;;;0.20;;
46463;SDS011;32161;48.148;-1.554;2022-08-25T12:17:18;1.25;;;0.15;;
46463;SDS011;32161;48.148;-1.554;2022-08-25T12:20:02;3.13;;;0.30;;
46463;SDS011;32161;48.148;-1.554;2022-08-25T12:22:40;2.75;;;0.30;;
46463;SDS011;32161;48.148;-1.554;2022-08-25T12:25:32;4.90;;;0.30;;
46463;SDS011;32161;48.148;-1.554;2022-08-25T12:28:29;1.70;;;0.30;;
46463;SDS011;32161;48.148;-1.554;2022-08-25T12:31:18;2.83;;;0.43;;
46463;SDS011;32161;48.148;-1.554;2022-08-25T12:34:09;1.88;;;0.50;;
46463;SDS011;32161;48.148;-1.554;2022-08-25T12:36:55;0.68;;;0.20;;
46463;SDS011;32161;48.148;-1.554;2022-08-25T12:39:30;3.03;;;0.80;;
46463;SDS011;32161;48.148;-1.554;2022-08-25T12:42:03;3.42;;;1.17;;
46463;SDS011;32161;48.148;-1.554;2022-08-25T12:44:40;1.00;;;0.40;;
46463;SDS011;32161;48.148;-1.554;2022-08-25T12:47:23;1.65;;;0.50;;
46463;SDS011;32161;48.148;-1.554;2022-08-25T12:53:06;1.67;;;0.43;;
46463;SDS011;32161;48.148;-1.554;2022-08-25T12:55:40;0.68;;;0.32;;
46463;SDS011;32161;48.148;-1.554;2022-08-25T12:58:14;1.85;;;0.40;;
46463;SDS011;32161;48.148;-1.554;2022-08-25T13:00:53;2.97;;;0.50;;
46463;SDS011;32161;48.148;-1.554;2022-08-25T13:03:44;0.73;;;0.20;;
46463;SDS011;32161;48.148;-1.554;2022-08-25T13:06:44;1.85;;;0.20;;
46463;SDS011;32161;48.148;-1.554;2022-08-25T13:09:43;0.38;;;0.30;;
46463;SDS011;32161;48.148;-1.554;2022-08-25T13:12:39;7.45;;;0.60;;
46463;SDS011;32161;48.148;-1.554;2022-08-25T13:15:14;3.20;;;0.77;;
46463;SDS011;32161;48.148;-1.554;2022-08-25T13:17:54;0.60;;;0.50;;
46463;SDS011;32161;48.148;-1.554;2022-08-25T13:20:37;0.80;;;0.50;;
46463;SDS011;32161;48.148;-1.554;2022-08-25T13:23:05;1.42;;;0.47;;
46463;SDS011;32161;48.148;-1.554;2022-08-25T13:25:34;1.85;;;0.60;;
46463;SDS011;32161;48.148;-1.554;2022-08-25T13:28:17;2.30;;;0.60;;
46463;SDS011;32161;48.148;-1.554;2022-08-25T13:30:56;0.50;;;0.40;;
46463;SDS011;32161;48.148;-1.554;2022-08-25T13:33:28;0.57;;;0.50;;
46463;SDS011;32161;48.148;-1.554;2022-08-25T13:35:57;0.73;;;0.60;;
46463;SDS011;32161;48.148;-1.554;2022-08-25T13:38:44;2.63;;;0.52;;
46463;SDS011;32161;48.148;-1.554;2022-08-25T13:41:18;3.30;;;1.00;;
46463;SDS011;32161;48.148;-1.554;2022-08-25T13:43:49;1.40;;;0.50;;
46463;SDS011;32161;48.148;-1.554;2022-08-25T13:46:19;4.35;;;0.73;;
46463;SDS011;32161;48.148;-1.554;2022-08-25T13:48:49;1.40;;;0.77;;
46463;SDS011;32161;48.148;-1.554;2022-08-25T13:51:31;0.93;;;0.60;;
46463;SDS011;32161;48.148;-1.554;2022-08-25T13:54:00;1.48;;;0.60;;
46463;SDS011;32161;48.148;-1.554;2022-08-25T13:56:31;1.98;;;0.90;;
46463;SDS011;32161;48.148;-1.554;2022-08-25T13:59:03;1.48;;;0.90;;
46463;SDS011;32161;48.148;-1.554;2022-08-25T14:01:45;3.10;;;1.27;;
46463;SDS011;32161;48.148;-1.554;2022-08-25T14:04:29;4.07;;;1.05;;
46463;SDS011;32161;48.148;-1.554;2022-08-25T14:07:27;1.67;;;0.70;;
46463;SDS011;32161;48.148;-1.554;2022-08-25T14:09:57;2.05;;;0.73;;
46463;SDS011;32161;48.148;-1.554;2022-08-25T14:12:31;4.43;;;0.80;;
46463;SDS011;32161;48.148;-1.554;2022-08-25T14:15:08;1.75;;;0.60;;
46463;SDS011;32161;48.148;-1.554;2022-08-25T14:17:59;2.97;;;1.10;;
46463;SDS011;32161;48.148;-1.554;2022-08-25T14:20:33;1.08;;;0.85;;
46463;SDS011;32161;48.148;-1.554;2022-08-25T14:23:04;3.28;;;0.98;;
46463;SDS011;32161;48.148;-1.554;2022-08-25T14:25:37;1.42;;;1.05;;
46463;SDS011;32161;48.148;-1.554;2022-08-25T14:28:08;7.85;;;1.30;;
46463;SDS011;32161;48.148;-1.554;2022-08-25T14:30:39;1.50;;;1.00;;
46463;SDS011;32161;48.148;-1.554;2022-08-25T14:33:10;2.97;;;1.20;;
46463;SDS011;32161;48.148;-1.554;2022-08-25T14:35:40;1.58;;;1.10;;
46463;SDS011;32161;48.148;-1.554;2022-08-25T14:38:12;1.10;;;0.90;;
46463;SDS011;32161;48.148;-1.554;2022-08-25T14:40:42;2.47;;;1.17;;
46463;SDS011;32161;48.148;-1.554;2022-08-25T14:43:10;3.40;;;1.25;;
46463;SDS011;32161;48.148;-1.554;2022-08-25T14:46:00;3.55;;;0.80;;
46463;SDS011;32161;48.148;-1.554;2022-08-25T14:48:38;2.28;;;1.10;;
46463;SDS011;32161;48.148;-1.554;2022-08-25T14:51:11;1.67;;;1.05;;
46463;SDS011;32161;48.148;-1.554;2022-08-25T14:53:40;3.78;;;0.82;;
46463;SDS011;32161;48.148;-1.554;2022-08-25T14:56:09;1.45;;;0.82;;
46463;SDS011;32161;48.148;-1.554;2022-08-25T14:58:36;2.15;;;0.80;;
46463;SDS011;32161;48.148;-1.554;2022-08-25T15:01:05;1.52;;;0.93;;
46463;SDS011;32161;48.148;-1.554;2022-08-25T15:03:34;2.80;;;1.05;;
46463;SDS011;32161;48.148;-1.554;2022-08-25T15:06:05;4.80;;;0.85;;
46463;SDS011;32161;48.148;-1.554;2022-08-25T15:08:36;0.60;;;0.60;;
46463;SDS011;32161;48.148;-1.554;2022-08-25T15:11:18;3.00;;;0.80;;
46463;SDS011;32161;48.148;-1.554;2022-08-25T15:13:45;1.00;;;0.90;;
46463;SDS011;32161;48.148;-1.554;2022-08-25T15:16:14;3.58;;;0.88;;
46463;SDS011;32161;48.148;-1.554;2022-08-25T15:18:54;3.25;;;1.00;;
46463;SDS011;32161;48.148;-1.554;2022-08-25T15:21:27;3.75;;;1.20;;
46463;SDS011;32161;48.148;-1.554;2022-08-25T15:24:08;4.28;;;1.25;;
46463;SDS011;32161;48.148;-1.554;2022-08-25T15:26:41;0.90;;;0.90;;
46463;SDS011;32161;48.148;-1.554;2022-08-25T15:29:11;1.17;;;0.90;;
46463;SDS011;32161;48.148;-1.554;2022-08-25T15:31:39;2.00;;;0.80;;
46463;SDS011;32161;48.148;-1.554;2022-08-25T15:34:07;1.55;;;0.80;;
46463;SDS011;32161;48.148;-1.554;2022-08-25T15:36:36;0.70;;;0.70;;
46463;SDS011;32161;48.148;-1.554;2022-08-25T15:39:04;3.83;;;1.35;;